createdAt,value
2023-12-31T00:01:02.009Z,75.67
2023-12-31T00:03:50.716Z,75.75
2023-12-31T00:06:19.125Z,75.63
2023-12-31T00:08:48.104Z,75.56
2023-12-31T00:11:16.622Z,75.53
2023-12-31T00:13:44.967Z,75.57
2023-12-31T00:16:16.464Z,75.69
2023-12-31T00:18:45.575Z,75.98
2023-12-31T00:21:14.627Z,76.27
2023-12-31T00:23:43.838Z,76.51
2023-12-31T00:26:12.179Z,76.53
2023-12-31T00:28:41.134Z,76.89
2023-12-31T00:31:09.624Z,77.17
2023-12-31T00:33:39.522Z,76.95
2023-12-31T00:36:08.587Z,76.57
2023-12-31T00:38:38.764Z,76.31
2023-12-31T00:41:07.348Z,76.38
2023-12-31T00:43:36.004Z,76.26
2023-12-31T00:46:04.161Z,76.35
2023-12-31T00:48:32.579Z,75.79
2023-12-31T00:51:04.781Z,75.80
2023-12-31T00:53:33.790Z,75.91
2023-12-31T00:56:02.567Z,76.31
2023-12-31T00:58:31.191Z,76.66
2023-12-31T01:00:59.442Z,76.73
2023-12-31T01:03:28.146Z,76.71
2023-12-31T01:06:06.454Z,76.73
2023-12-31T01:08:35.516Z,76.76
2023-12-31T01:11:03.932Z,76.74
2023-12-31T01:13:32.674Z,76.60
2023-12-31T01:16:01.514Z,76.52
2023-12-31T01:18:31.298Z,76.83
2023-12-31T01:21:00.105Z,76.74
2023-12-31T01:23:28.630Z,76.63
2023-12-31T01:25:57.075Z,77.00
2023-12-31T01:28:25.506Z,77.20
2023-12-31T01:30:53.901Z,77.43
2023-12-31T01:33:23.147Z,77.32
2023-12-31T01:35:52.026Z,77.25
2023-12-31T01:38:20.462Z,77.28
2023-12-31T01:40:54.857Z,77.03
2023-12-31T01:43:24.605Z,76.82
2023-12-31T01:45:53.113Z,76.76
2023-12-31T01:48:22.162Z,76.44
2023-12-31T01:50:51.132Z,76.36
2023-12-31T01:53:20.829Z,76.33
2023-12-31T01:55:50.696Z,76.51
2023-12-31T01:58:19.906Z,76.87
2023-12-31T02:00:48.825Z,76.62
2023-12-31T02:03:18.966Z,76.87
2023-12-31T02:05:48.136Z,76.95
2023-12-31T02:08:16.532Z,76.75
2023-12-31T02:10:45.405Z,76.86
2023-12-31T02:13:13.981Z,76.43
2023-12-31T02:15:42.550Z,76.38
2023-12-31T02:18:12.758Z,76.12
2023-12-31T02:20:41.166Z,76.21
2023-12-31T02:23:09.617Z,76.24
2023-12-31T02:25:40.373Z,76.05
2023-12-31T02:28:15.715Z,76.17
2023-12-31T02:30:44.184Z,76.24
2023-12-31T02:33:12.360Z,76.20
2023-12-31T02:35:42.371Z,76.35
2023-12-31T02:38:10.730Z,76.76
2023-12-31T02:40:38.955Z,77.04
2023-12-31T02:43:07.798Z,76.73
2023-12-31T02:45:36.677Z,76.79
2023-12-31T02:48:05.911Z,76.55
2023-12-31T02:50:34.922Z,76.58
2023-12-31T02:53:04.855Z,76.43
2023-12-31T02:55:33.489Z,76.25
2023-12-31T02:58:01.671Z,76.03
2023-12-31T03:00:30.528Z,75.82
2023-12-31T03:02:58.976Z,75.82
2023-12-31T03:05:27.370Z,75.78
2023-12-31T03:07:56.146Z,75.48
2023-12-31T03:10:25.023Z,75.59
2023-12-31T03:12:54.087Z,75.59
2023-12-31T03:15:23.002Z,75.75
2023-12-31T03:17:51.517Z,76.26
2023-12-31T03:20:20.303Z,76.32
2023-12-31T03:22:48.503Z,76.14
2023-12-31T03:25:19.207Z,75.79
2023-12-31T03:27:47.593Z,75.54
2023-12-31T03:30:16.767Z,75.42
2023-12-31T03:32:45.301Z,75.50
2023-12-31T03:35:13.746Z,75.29
2023-12-31T03:37:48.515Z,75.24
2023-12-31T03:40:17.210Z,75.07
2023-12-31T03:42:45.604Z,74.91
2023-12-31T03:45:16.693Z,75.04
2023-12-31T03:47:45.185Z,75.05
2023-12-31T03:50:14.146Z,75.36
2023-12-31T03:52:42.356Z,75.62
2023-12-31T03:55:11.008Z,75.68
2023-12-31T03:57:39.456Z,75.29
2023-12-31T04:00:09.798Z,74.93
2023-12-31T04:02:38.366Z,75.22
2023-12-31T04:05:06.993Z,75.31
2023-12-31T04:07:35.271Z,75.24
2023-12-31T04:10:03.661Z,75.28
2023-12-31T04:12:31.974Z,75.21
2023-12-31T04:15:00.942Z,75.09
2023-12-31T04:17:29.364Z,74.99
2023-12-31T04:19:57.854Z,75.15
2023-12-31T04:22:26.193Z,75.42
2023-12-31T04:24:54.597Z,75.68
2023-12-31T04:27:23.234Z,75.74
2023-12-31T04:29:51.577Z,75.54
2023-12-31T04:32:19.881Z,75.45
2023-12-31T04:34:48.418Z,75.28
2023-12-31T04:37:17.135Z,75.07
2023-12-31T04:39:45.506Z,74.94
2023-12-31T04:42:13.988Z,74.84
2023-12-31T04:44:42.658Z,74.99
2023-12-31T04:47:10.990Z,75.01
2023-12-31T04:49:39.346Z,75.20
2023-12-31T04:52:10.092Z,75.25
2023-12-31T04:54:40.398Z,75.26
2023-12-31T04:57:08.709Z,75.21
2023-12-31T04:59:37.518Z,75.52
2023-12-31T05:02:06.138Z,75.61
2023-12-31T05:04:34.452Z,75.80
2023-12-31T05:07:04.387Z,75.39
2023-12-31T05:09:32.942Z,75.32
2023-12-31T05:12:01.172Z,75.19
2023-12-31T05:14:29.622Z,75.12
2023-12-31T05:16:58.179Z,75.22
2023-12-31T05:19:26.846Z,75.10
2023-12-31T05:21:55.396Z,74.86
2023-12-31T05:24:23.710Z,74.86
2023-12-31T05:26:52.003Z,74.85
2023-12-31T05:29:20.265Z,75.08
2023-12-31T05:31:48.902Z,75.47
2023-12-31T05:34:17.333Z,75.57
2023-12-31T05:36:45.803Z,75.46
2023-12-31T05:39:14.167Z,75.35
2023-12-31T05:41:42.467Z,75.47
2023-12-31T05:44:13.461Z,75.51
2023-12-31T05:46:42.040Z,75.33
2023-12-31T05:49:10.423Z,75.41
2023-12-31T05:51:38.964Z,75.48
2023-12-31T05:54:07.540Z,75.23
2023-12-31T05:56:35.948Z,75.43
2023-12-31T05:59:04.614Z,75.31
2023-12-31T06:01:32.820Z,75.44
2023-12-31T06:04:01.468Z,75.45
2023-12-31T06:06:35.336Z,75.34
2023-12-31T06:09:04.370Z,75.52
2023-12-31T06:11:32.969Z,75.81
2023-12-31T06:14:04.401Z,75.98
2023-12-31T06:16:32.837Z,75.72
2023-12-31T06:19:01.326Z,75.58
2023-12-31T06:21:29.611Z,75.50
2023-12-31T06:23:58.216Z,75.28
2023-12-31T06:26:26.991Z,75.59
2023-12-31T06:28:55.317Z,75.53
2023-12-31T06:31:23.871Z,75.52
2023-12-31T06:33:53.437Z,75.35
2023-12-31T06:36:22.081Z,75.38
2023-12-31T06:38:50.458Z,75.20
2023-12-31T06:41:22.617Z,75.44
2023-12-31T06:43:51.775Z,75.89
2023-12-31T06:46:20.427Z,75.95
2023-12-31T06:48:48.964Z,75.43
2023-12-31T06:51:17.417Z,75.35
2023-12-31T06:53:45.765Z,75.49
2023-12-31T06:56:14.626Z,75.51
2023-12-31T06:58:43.369Z,75.37
2023-12-31T07:01:12.341Z,75.21
2023-12-31T07:03:41.152Z,75.25
2023-12-31T07:06:10.337Z,75.28
2023-12-31T07:08:39.165Z,75.34
2023-12-31T07:11:07.494Z,75.38
2023-12-31T07:13:37.871Z,75.74
2023-12-31T07:16:06.399Z,75.55
2023-12-31T07:18:35.172Z,75.51
2023-12-31T07:21:06.561Z,75.13
2023-12-31T07:23:35.100Z,75.09
2023-12-31T07:26:07.422Z,74.94
2023-12-31T07:28:36.307Z,75.02
2023-12-31T07:31:05.095Z,74.97
2023-12-31T07:33:33.516Z,75.16
2023-12-31T07:36:01.871Z,75.16
2023-12-31T07:38:31.016Z,75.36
2023-12-31T07:40:59.598Z,75.28
2023-12-31T07:43:28.332Z,75.04
2023-12-31T07:45:56.845Z,75.43
2023-12-31T07:48:26.506Z,75.68
2023-12-31T07:50:55.123Z,75.59
2023-12-31T07:53:23.402Z,75.21
2023-12-31T07:55:51.942Z,74.91
2023-12-31T07:58:26.016Z,74.53
2023-12-31T08:00:57.004Z,74.55
2023-12-31T08:03:28.314Z,74.60
2023-12-31T08:05:57.903Z,74.71
2023-12-31T08:08:27.068Z,74.80
2023-12-31T08:10:55.423Z,75.08
2023-12-31T08:13:23.640Z,75.42
2023-12-31T08:15:52.124Z,75.50
2023-12-31T08:18:21.390Z,75.06
2023-12-31T08:20:49.927Z,75.05
2023-12-31T08:23:19.455Z,75.16
2023-12-31T08:25:48.079Z,75.14
2023-12-31T08:28:16.721Z,74.61
2023-12-31T08:30:45.565Z,74.67
2023-12-31T08:33:14.029Z,74.91
2023-12-31T08:35:43.306Z,74.35
2023-12-31T08:38:11.913Z,74.54
2023-12-31T08:40:40.916Z,74.79
2023-12-31T08:43:09.865Z,74.94
2023-12-31T08:45:41.436Z,75.06
2023-12-31T08:48:11.812Z,74.94
2023-12-31T08:50:40.718Z,74.58
2023-12-31T08:53:09.370Z,74.41
2023-12-31T08:55:38.205Z,74.20
2023-12-31T08:58:07.389Z,74.07
2023-12-31T09:00:35.944Z,74.06
2023-12-31T09:03:05.505Z,73.71
2023-12-31T09:05:34.437Z,73.71
2023-12-31T09:08:06.319Z,73.53
2023-12-31T09:10:35.351Z,73.26
2023-12-31T09:13:05.265Z,73.10
2023-12-31T09:15:34.152Z,72.76
2023-12-31T09:18:02.612Z,72.93
2023-12-31T09:20:31.167Z,73.11
2023-12-31T09:22:59.878Z,73.17
2023-12-31T09:25:28.678Z,72.79
2023-12-31T09:27:57.270Z,72.63
2023-12-31T09:30:25.530Z,72.82
2023-12-31T09:32:54.086Z,72.51
2023-12-31T09:35:22.989Z,72.68
2023-12-31T09:37:51.367Z,72.96
2023-12-31T09:40:20.352Z,73.32
2023-12-31T09:42:50.931Z,73.47
2023-12-31T09:45:28.700Z,73.11
2023-12-31T09:48:01.512Z,72.81
2023-12-31T09:50:31.894Z,73.22
2023-12-31T09:53:04.845Z,72.71
2023-12-31T09:55:35.924Z,72.08
2023-12-31T09:58:06.251Z,72.47
2023-12-31T10:00:34.920Z,72.33
2023-12-31T10:03:06.208Z,71.75
2023-12-31T10:05:39.728Z,72.41
2023-12-31T10:08:10.343Z,72.82
2023-12-31T10:10:40.156Z,72.98
2023-12-31T10:13:15.478Z,72.59
2023-12-31T10:15:44.429Z,72.71
2023-12-31T10:18:12.940Z,72.50
2023-12-31T10:20:41.568Z,72.24
2023-12-31T10:23:10.250Z,72.22
2023-12-31T10:25:38.606Z,71.95
2023-12-31T10:28:07.258Z,71.13
2023-12-31T10:30:40.337Z,70.63
2023-12-31T10:33:15.573Z,70.68
2023-12-31T10:35:44.816Z,70.74
2023-12-31T10:38:13.396Z,70.65
2023-12-31T10:40:42.794Z,70.83
2023-12-31T10:43:14.358Z,70.96
2023-12-31T10:45:42.959Z,71.08
2023-12-31T10:48:14.297Z,70.93
2023-12-31T10:50:48.283Z,71.37
2023-12-31T10:53:18.263Z,71.35
2023-12-31T10:55:48.577Z,71.32
2023-12-31T10:58:18.201Z,71.56
2023-12-31T11:00:47.458Z,71.85
2023-12-31T11:03:18.919Z,72.04
2023-12-31T11:05:47.737Z,72.33
2023-12-31T11:08:18.879Z,72.26
2023-12-31T11:10:48.400Z,72.56
2023-12-31T11:13:19.279Z,72.89
2023-12-31T11:15:55.568Z,72.76
2023-12-31T11:19:02.549Z,72.67
2023-12-31T11:22:04.907Z,72.75
2023-12-31T11:24:33.686Z,72.76
2023-12-31T11:27:20.723Z,72.66
2023-12-31T11:29:54.074Z,72.78
2023-12-31T11:32:22.642Z,73.27
2023-12-31T11:34:55.410Z,73.17
2023-12-31T11:37:25.076Z,73.15
2023-12-31T11:39:56.823Z,73.00
2023-12-31T11:42:26.958Z,72.78
2023-12-31T11:44:56.556Z,72.53
2023-12-31T11:47:30.916Z,72.45
2023-12-31T11:49:59.560Z,72.25
2023-12-31T11:52:42.096Z,71.92
2023-12-31T11:55:14.457Z,72.03
2023-12-31T11:57:45.631Z,72.00
2023-12-31T12:00:14.464Z,71.91
2023-12-31T12:02:42.780Z,71.71
2023-12-31T12:05:11.210Z,71.73
2023-12-31T12:07:42.547Z,71.51
2023-12-31T12:10:12.330Z,71.27
2023-12-31T12:12:40.824Z,69.67
2023-12-31T12:15:09.631Z,69.38
2023-12-31T12:17:38.733Z,68.61
2023-12-31T12:20:11.200Z,69.37
2023-12-31T12:22:40.725Z,69.37
2023-12-31T12:25:09.765Z,69.14
2023-12-31T12:27:38.304Z,69.17
2023-12-31T12:30:07.651Z,69.08
2023-12-31T12:32:36.501Z,68.94
2023-12-31T12:35:08.209Z,68.94
2023-12-31T12:37:36.753Z,68.87
2023-12-31T12:40:06.839Z,68.92
2023-12-31T12:42:35.551Z,69.00
2023-12-31T12:45:04.557Z,68.79
2023-12-31T12:47:33.057Z,68.99
2023-12-31T12:50:02.765Z,68.71
2023-12-31T12:52:32.430Z,68.94
2023-12-31T12:55:01.153Z,68.91
2023-12-31T12:57:29.637Z,69.06
2023-12-31T13:00:00.570Z,69.08
2023-12-31T13:02:29.310Z,69.15
2023-12-31T13:04:59.071Z,69.30
2023-12-31T13:07:27.612Z,69.45
2023-12-31T13:09:56.193Z,69.58
2023-12-31T13:12:24.551Z,69.27
2023-12-31T13:14:52.943Z,69.19
2023-12-31T13:17:23.266Z,69.25
2023-12-31T13:19:55.386Z,69.35
2023-12-31T13:22:23.939Z,69.41
2023-12-31T13:24:52.600Z,69.66
2023-12-31T13:27:22.859Z,69.44
2023-12-31T13:29:51.214Z,69.71
2023-12-31T13:32:20.547Z,70.14
2023-12-31T13:34:49.027Z,70.62
2023-12-31T13:37:17.486Z,70.59
2023-12-31T13:39:45.856Z,70.44
2023-12-31T13:42:14.551Z,70.20
2023-12-31T13:44:43.042Z,70.23
2023-12-31T13:47:14.864Z,70.09
2023-12-31T13:49:43.503Z,69.98
2023-12-31T13:52:12.470Z,70.14
2023-12-31T13:54:41.511Z,70.14
2023-12-31T13:57:10.056Z,70.04
2023-12-31T13:59:38.735Z,70.17
2023-12-31T14:02:07.617Z,70.12
2023-12-31T14:04:36.282Z,70.21
2023-12-31T14:07:05.280Z,70.21
2023-12-31T14:09:37.267Z,70.35
2023-12-31T14:12:06.911Z,70.31
2023-12-31T14:14:35.379Z,70.56
2023-12-31T14:17:03.623Z,70.52
2023-12-31T14:19:33.079Z,70.61
2023-12-31T14:22:01.863Z,70.65
2023-12-31T14:24:30.947Z,70.92
2023-12-31T14:26:59.772Z,70.90
2023-12-31T14:29:28.529Z,71.09
2023-12-31T14:31:57.330Z,71.54
2023-12-31T14:34:26.242Z,71.87
2023-12-31T14:36:54.973Z,72.35
2023-12-31T14:39:23.316Z,72.43
2023-12-31T14:41:51.828Z,72.24
2023-12-31T14:44:21.111Z,72.28
2023-12-31T14:46:49.586Z,72.29
2023-12-31T14:49:17.949Z,72.41
2023-12-31T14:51:46.941Z,72.45
2023-12-31T14:54:15.593Z,72.69
2023-12-31T14:56:44.019Z,72.79
2023-12-31T14:59:12.396Z,72.97
2023-12-31T15:01:40.839Z,73.18
2023-12-31T15:04:10.955Z,73.23
2023-12-31T15:06:42.610Z,73.43
2023-12-31T15:09:16.331Z,73.55
2023-12-31T15:11:46.094Z,73.62
2023-12-31T15:14:15.149Z,73.25
2023-12-31T15:16:43.638Z,73.60
2023-12-31T15:19:12.133Z,73.41
2023-12-31T15:21:40.490Z,73.15
2023-12-31T15:24:09.306Z,73.32
2023-12-31T15:26:37.832Z,73.53
2023-12-31T15:29:07.327Z,73.33
2023-12-31T15:31:38.476Z,73.58
2023-12-31T15:34:08.487Z,73.33
2023-12-31T15:36:36.806Z,73.20
2023-12-31T15:39:05.031Z,73.45
2023-12-31T15:41:33.371Z,73.18
2023-12-31T15:44:02.147Z,73.65
2023-12-31T15:46:31.272Z,73.88
2023-12-31T15:48:59.931Z,73.59
2023-12-31T15:51:29.040Z,74.12
2023-12-31T15:53:57.294Z,73.93
2023-12-31T15:56:27.834Z,74.00
2023-12-31T15:58:56.347Z,73.68
2023-12-31T16:01:24.923Z,73.77
2023-12-31T16:03:53.743Z,73.32
2023-12-31T16:06:22.727Z,73.55
2023-12-31T16:08:51.153Z,73.56
2023-12-31T16:11:20.852Z,73.92
2023-12-31T16:13:49.061Z,73.61
2023-12-31T16:16:17.173Z,73.79
2023-12-31T16:18:45.831Z,73.68
2023-12-31T16:21:14.375Z,74.23
2023-12-31T16:23:42.644Z,74.36
2023-12-31T16:26:11.210Z,74.43
2023-12-31T16:28:39.686Z,74.38
2023-12-31T16:31:11.104Z,74.87
2023-12-31T16:33:39.586Z,74.62
2023-12-31T16:36:08.196Z,74.63
2023-12-31T16:38:36.681Z,74.48
2023-12-31T16:41:05.629Z,74.03
2023-12-31T16:43:34.082Z,73.79
2023-12-31T16:46:02.934Z,74.28
2023-12-31T16:48:31.711Z,73.85
2023-12-31T16:51:00.295Z,74.19
2023-12-31T16:53:29.284Z,74.36
2023-12-31T16:55:58.935Z,74.46
2023-12-31T16:58:27.650Z,74.12
2023-12-31T17:00:56.295Z,74.42
2023-12-31T17:03:25.132Z,74.23
2023-12-31T17:05:55.684Z,74.51
2023-12-31T17:08:24.533Z,73.72
2023-12-31T17:10:53.003Z,73.45
2023-12-31T17:13:21.232Z,73.63
2023-12-31T17:15:49.771Z,74.29
2023-12-31T17:18:20.189Z,75.47
2023-12-31T17:20:48.764Z,75.67
2023-12-31T17:23:18.589Z,75.67
2023-12-31T17:25:47.067Z,75.84
2023-12-31T17:28:15.424Z,77.30
2023-12-31T17:30:43.677Z,76.81
2023-12-31T17:33:12.501Z,76.78
2023-12-31T17:35:41.339Z,76.77
2023-12-31T17:38:10.296Z,77.03
2023-12-31T17:40:38.857Z,76.68
2023-12-31T17:43:07.655Z,76.53
2023-12-31T17:45:36.365Z,76.21
2023-12-31T17:48:05.815Z,76.52
2023-12-31T17:50:34.449Z,76.61
2023-12-31T17:53:02.945Z,76.46
2023-12-31T17:55:31.602Z,76.35
2023-12-31T17:58:00.224Z,76.40
2023-12-31T18:00:28.733Z,75.89
2023-12-31T18:02:57.233Z,75.81
2023-12-31T18:05:26.049Z,75.75
2023-12-31T18:07:54.582Z,75.73
2023-12-31T18:10:23.351Z,75.44
2023-12-31T18:12:57.082Z,75.46
2023-12-31T18:15:25.806Z,75.38
2023-12-31T18:17:54.991Z,75.40
2023-12-31T18:20:23.968Z,75.30
2023-12-31T18:22:52.642Z,74.99
2023-12-31T18:25:21.101Z,74.93
2023-12-31T18:27:49.490Z,75.08
2023-12-31T18:30:23.674Z,74.72
2023-12-31T18:32:54.917Z,74.91
2023-12-31T18:35:23.581Z,74.50
2023-12-31T18:37:51.674Z,74.28
2023-12-31T18:40:20.501Z,74.27
2023-12-31T18:42:49.153Z,74.09
2023-12-31T18:45:18.153Z,74.08
2023-12-31T18:47:46.957Z,74.08
2023-12-31T18:50:15.587Z,74.03
2023-12-31T18:52:43.897Z,74.33
2023-12-31T18:55:13.773Z,74.15
2023-12-31T18:57:43.090Z,74.13
2023-12-31T19:00:12.693Z,73.64
2023-12-31T19:02:41.456Z,73.70
2023-12-31T19:05:10.072Z,73.57
2023-12-31T19:07:38.772Z,73.72
2023-12-31T19:10:08.075Z,73.56
2023-12-31T19:12:37.281Z,73.54
2023-12-31T19:15:06.542Z,73.84
2023-12-31T19:17:34.814Z,73.95
2023-12-31T19:20:04.915Z,73.63
2023-12-31T19:22:33.867Z,73.66
2023-12-31T19:25:04.863Z,73.41
2023-12-31T19:27:33.772Z,73.29
2023-12-31T19:30:02.675Z,73.02
2023-12-31T19:32:31.258Z,73.67
2023-12-31T19:34:59.885Z,73.11
2023-12-31T19:37:28.316Z,73.33
2023-12-31T19:39:56.812Z,73.65
2023-12-31T19:42:25.235Z,73.70
2023-12-31T19:44:53.875Z,73.58
2023-12-31T19:47:22.337Z,74.06
2023-12-31T19:49:58.345Z,74.05
2023-12-31T19:52:29.662Z,73.47
2023-12-31T19:54:59.002Z,73.46
2023-12-31T19:57:27.749Z,73.51
2023-12-31T19:59:57.864Z,73.32
2023-12-31T20:02:30.250Z,73.32
2023-12-31T20:04:59.236Z,73.62
2023-12-31T20:07:30.117Z,73.17
2023-12-31T20:09:59.136Z,73.12
2023-12-31T20:12:27.855Z,73.13
2023-12-31T20:14:56.565Z,72.86
2023-12-31T20:17:26.426Z,72.76
2023-12-31T20:19:56.004Z,72.51
2023-12-31T20:22:24.557Z,72.04
2023-12-31T20:24:53.108Z,72.15
2023-12-31T20:27:21.582Z,72.16
2023-12-31T20:29:50.463Z,73.02
2023-12-31T20:32:18.894Z,73.52
2023-12-31T20:34:47.721Z,72.99
2023-12-31T20:37:16.610Z,72.71
2023-12-31T20:39:45.323Z,72.76
2023-12-31T20:42:13.774Z,73.47
2023-12-31T20:44:42.244Z,73.54
2023-12-31T20:47:10.640Z,73.58
2023-12-31T20:49:41.037Z,73.28
2023-12-31T20:52:16.647Z,72.87
2023-12-31T20:54:46.737Z,72.93
2023-12-31T20:57:17.369Z,73.14
2023-12-31T20:59:45.865Z,73.35
2023-12-31T21:02:14.635Z,73.84
2023-12-31T21:04:43.601Z,73.89
2023-12-31T21:07:12.545Z,74.21
2023-12-31T21:09:40.930Z,73.85
2023-12-31T21:12:09.668Z,74.11
2023-12-31T21:14:38.159Z,73.73
2023-12-31T21:17:06.915Z,73.45
2023-12-31T21:19:35.522Z,73.61
2023-12-31T21:22:03.923Z,73.20
2023-12-31T21:24:33.068Z,73.38
2023-12-31T21:27:01.585Z,73.62
2023-12-31T21:29:30.289Z,73.67
2023-12-31T21:31:58.728Z,73.47
2023-12-31T21:34:27.617Z,73.71
2023-12-31T21:36:56.400Z,73.81
2023-12-31T21:39:24.912Z,74.22
2023-12-31T21:41:53.524Z,74.06
2023-12-31T21:44:22.211Z,73.80
2023-12-31T21:46:50.622Z,73.57
2023-12-31T21:49:19.252Z,73.65
2023-12-31T21:51:48.002Z,73.38
2023-12-31T21:54:16.544Z,73.64
2023-12-31T21:56:57.427Z,73.83
2023-12-31T21:59:30.908Z,73.67
2023-12-31T22:01:59.259Z,73.85
2023-12-31T22:04:29.365Z,73.88
2023-12-31T22:06:58.394Z,74.38
2023-12-31T22:09:27.269Z,74.58
2023-12-31T22:11:55.803Z,74.46
2023-12-31T22:14:24.226Z,74.09
2023-12-31T22:16:52.896Z,73.62
2023-12-31T22:19:21.415Z,73.78
2023-12-31T22:21:49.809Z,74.33
2023-12-31T22:24:18.112Z,74.50
2023-12-31T22:26:46.620Z,74.48
2023-12-31T22:29:15.459Z,74.65
2023-12-31T22:31:43.924Z,74.27
2023-12-31T22:34:12.400Z,74.20
2023-12-31T22:36:41.246Z,74.01
2023-12-31T22:39:09.888Z,74.46
2023-12-31T22:41:38.126Z,74.60
2023-12-31T22:44:06.920Z,74.53
2023-12-31T22:46:35.390Z,74.27
2023-12-31T22:49:04.116Z,74.04
2023-12-31T22:51:33.031Z,74.13
2023-12-31T22:54:01.702Z,74.22
2023-12-31T22:56:30.219Z,74.64
2023-12-31T22:58:58.730Z,74.79
2023-12-31T23:01:30.599Z,74.90
2023-12-31T23:03:58.946Z,75.22
2023-12-31T23:06:27.443Z,75.65
2023-12-31T23:08:56.148Z,75.63
2023-12-31T23:11:24.485Z,75.58
2023-12-31T23:13:52.856Z,75.69
2023-12-31T23:16:21.674Z,76.00
2023-12-31T23:18:50.496Z,75.72
2023-12-31T23:21:20.302Z,75.60
2023-12-31T23:23:48.815Z,75.58
2023-12-31T23:26:19.825Z,75.65
2023-12-31T23:28:50.029Z,75.59
2023-12-31T23:31:18.699Z,75.67
2023-12-31T23:33:47.155Z,75.66
2023-12-31T23:36:15.378Z,75.58
2023-12-31T23:38:44.129Z,75.42
2023-12-31T23:41:13.006Z,75.16
2023-12-31T23:43:42.468Z,74.90
2023-12-31T23:46:11.990Z,74.66
2023-12-31T23:48:40.495Z,75.02
2023-12-31T23:51:09.287Z,74.90
2023-12-31T23:53:37.935Z,75.04
2023-12-31T23:56:07.869Z,74.92
2023-12-31T23:58:37.941Z,74.82
